PWSweather.com
Personal Weather Stations
Station Observations
KMIEASTT1
Tawas Bay, East Tawas, MI 48730

Tawas BayEast Tawas, MI 48730

Lat: 44.28, Lon: -83.48

Elevation: 600

Station Type: Davis VantagePro

http://www.tawasbayweather.com

High Low Average
Temperature 13.3°F-10.4°C -6.8°F-21.6°C 4.1°F-15.5°C
Dew Point 7.6°F-13.6°C -10.4°F-23.6°C -1.6°F-18.7°C
Winds 18.0 mph 29.0 kmh Calm Calm 5.0 mph WSW8.0 kmh WSW
Wind Gusts 24.0 mph38.6 kmh -- 7.0 mph11.3 kmh
Humidity 88% 66% 77%
Pressure 30.15 in1021.0 mb 30.02 in1016.6 mb -
Precipitation 0.00 in0.0 mm - -
Hour Temp Dew Point Humidity Winds Wind Gusts Pressure Precip Precip Rate Daily Precip Total
12:00 AM 7.3°F-13.7°C 0.8°F-17.3°C 74% Calm Calm 3.0 mph4.8 kmh 30.14 in1020.7 mb 0.00 in0.0 mm 0.00 in0.0 mm 0.00 in0.0 mm
12:15 AM 7.0°F-13.9°C 0.5°F-17.5°C 74% Calm Calm -- 30.15 in1021.0 mb 0.00 in0.0 mm 0.00 in0.0 mm 0.00 in0.0 mm
12:30 AM 6.7°F-14.1°C 0.2°F-17.7°C 74% Calm Calm -- 30.14 in1020.7 mb 0.00 in0.0 mm 0.00 in0.0 mm 0.00 in0.0 mm
12:45 AM 3.9°F-15.6°C -4.3°F-20.2°C 68% Calm Calm -- 30.14 in1020.7 mb 0.00 in0.0 mm 0.00 in0.0 mm 0.00 in0.0 mm
01:00 AM 1.7°F-16.8°C -4.9°F-20.5°C 73% Calm Calm -- 30.14 in1020.7 mb 0.00 in0.0 mm 0.00 in0.0 mm 0.00 in0.0 mm
01:15 AM 1.0°F-17.2°C -4.5°F-20.3°C 77% Calm Calm -- 30.14 in1020.7 mb 0.00 in0.0 mm 0.00 in0.0 mm 0.00 in0.0 mm
01:30 AM 0.8°F-17.3°C -4.2°F-20.1°C 79% Calm Calm -- 30.14 in1020.7 mb 0.00 in0.0 mm 0.00 in0.0 mm 0.00 in0.0 mm
01:45 AM -1.7°F-18.7°C -6.1°F-21.2°C 81% Calm Calm 2.0 mph3.2 kmh 30.15 in1021.0 mb 0.00 in0.0 mm 0.00 in0.0 mm 0.00 in0.0 mm
02:00 AM -1.6°F-18.7°C -6.0°F-21.1°C 81% Calm Calm -- 30.15 in1021.0 mb 0.00 in0.0 mm 0.00 in0.0 mm 0.00 in0.0 mm
02:15 AM -1.2°F-18.4°C -5.4°F-20.8°C 82% Calm Calm -- 30.15 in1021.0 mb 0.00 in0.0 mm 0.00 in0.0 mm 0.00 in0.0 mm
02:30 AM -3.5°F-19.7°C -8.4°F-22.4°C 79% Calm Calm -- 30.15 in1021.0 mb 0.00 in0.0 mm 0.00 in0.0 mm 0.00 in0.0 mm
02:45 AM -4.3°F-20.2°C -8.1°F-22.3°C 83% Calm Calm -- 30.15 in1021.0 mb 0.00 in0.0 mm 0.00 in0.0 mm 0.00 in0.0 mm
03:03 AM -3.9°F-19.9°C -7.5°F-21.9°C 84% Calm Calm -- 30.15 in1021.0 mb 0.00 in0.0 mm 0.00 in0.0 mm 0.00 in0.0 mm
03:15 AM -5.3°F-20.7°C -9.1°F-22.8°C 83% Calm Calm -- 30.15 in1021.0 mb 0.00 in0.0 mm 0.00 in0.0 mm 0.00 in0.0 mm
03:30 AM -3.5°F-19.7°C -6.6°F-21.4°C 86% Calm Calm -- 30.15 in1021.0 mb 0.00 in0.0 mm 0.00 in0.0 mm 0.00 in0.0 mm
03:45 AM -4.3°F-20.2°C -7.7°F-22.1°C 85% Calm Calm -- 30.15 in1021.0 mb 0.00 in0.0 mm 0.00 in0.0 mm 0.00 in0.0 mm
04:00 AM -5.8°F-21.0°C -9.1°F-22.8°C 85% Calm Calm -- 30.14 in1020.7 mb 0.00 in0.0 mm 0.00 in0.0 mm 0.00 in0.0 mm
04:15 AM -4.4°F-20.2°C -7.5°F-21.9°C 86% Calm Calm -- 30.13 in1020.3 mb 0.00 in0.0 mm 0.00 in0.0 mm 0.00 in0.0 mm
04:30 AM -5.5°F-20.8°C -9.6°F-23.1°C 82% Calm Calm -- 30.13 in1020.3 mb 0.00 in0.0 mm 0.00 in0.0 mm 0.00 in0.0 mm
04:45 AM -6.8°F-21.6°C -10.4°F-23.6°C 84% Calm Calm -- 30.13 in1020.3 mb 0.00 in0.0 mm 0.00 in0.0 mm 0.00 in0.0 mm
05:00 AM -6.3°F-21.3°C -9.9°F-23.3°C 84% Calm Calm -- 30.13 in1020.3 mb 0.00 in0.0 mm 0.00 in0.0 mm 0.00 in0.0 mm
05:15 AM -4.6°F-20.3°C -7.7°F-22.1°C 86% Calm Calm -- 30.12 in1020.0 mb 0.00 in0.0 mm 0.00 in0.0 mm 0.00 in0.0 mm
05:30 AM -4.8°F-20.4°C -8.4°F-22.4°C 84% Calm Calm -- 30.12 in1020.0 mb 0.00 in0.0 mm 0.00 in0.0 mm 0.00 in0.0 mm
05:45 AM -6.8°F-21.6°C -10.1°F-23.4°C 85% Calm Calm -- 30.12 in1020.0 mb 0.00 in0.0 mm 0.00 in0.0 mm 0.00 in0.0 mm
06:00 AM -6.6°F-21.4°C -9.7°F-23.2°C 86% Calm Calm -- 30.12 in1020.0 mb 0.00 in0.0 mm 0.00 in0.0 mm 0.00 in0.0 mm
06:15 AM -4.2°F-20.1°C -6.9°F-21.6°C 88% Calm Calm -- 30.12 in1020.0 mb 0.00 in0.0 mm 0.00 in0.0 mm 0.00 in0.0 mm
06:30 AM -2.6°F-19.2°C -5.5°F-20.8°C 87% Calm Calm -- 30.12 in1020.0 mb 0.00 in0.0 mm 0.00 in0.0 mm 0.00 in0.0 mm
06:45 AM -2.2°F-19.0°C -5.4°F-20.8°C 86% Calm Calm -- 30.11 in1019.6 mb 0.00 in0.0 mm 0.00 in0.0 mm 0.00 in0.0 mm
07:00 AM -1.2°F-18.4°C -4.4°F-20.2°C 86% Calm Calm -- 30.10 in1019.3 mb 0.00 in0.0 mm 0.00 in0.0 mm 0.00 in0.0 mm
07:15 AM -1.3°F-18.5°C -4.7°F-20.4°C 85% Calm Calm -- 30.08 in1018.6 mb 0.00 in0.0 mm 0.00 in0.0 mm 0.00 in0.0 mm
07:30 AM -1.6°F-18.7°C -5.3°F-20.7°C 84% Calm Calm -- 30.07 in1018.3 mb 0.00 in0.0 mm 0.00 in0.0 mm 0.00 in0.0 mm
07:45 AM -4.0°F-20.0°C -7.6°F-22.0°C 84% Calm Calm -- 30.07 in1018.3 mb 0.00 in0.0 mm 0.00 in0.0 mm 0.00 in0.0 mm
08:00 AM -4.2°F-20.1°C -7.6°F-22.0°C 85% Calm Calm -- 30.07 in1018.3 mb 0.00 in0.0 mm 0.00 in0.0 mm 0.00 in0.0 mm
08:15 AM -2.5°F-19.2°C -5.4°F-20.8°C 87% Calm Calm -- 30.07 in1018.3 mb 0.00 in0.0 mm 0.00 in0.0 mm 0.00 in0.0 mm
08:30 AM -0.2°F-17.9°C -2.9°F-19.4°C 88% Calm Calm -- 30.07 in1018.3 mb 0.00 in0.0 mm 0.00 in0.0 mm 0.00 in0.0 mm
08:45 AM 0.8°F-17.3°C -2.4°F-19.1°C 86% Calm Calm -- 30.07 in1018.3 mb 0.00 in0.0 mm 0.00 in0.0 mm 0.00 in0.0 mm
09:00 AM 1.9°F-16.7°C -1.3°F-18.5°C 86% Calm Calm -- 30.08 in1018.6 mb 0.00 in0.0 mm 0.00 in0.0 mm 0.00 in0.0 mm
09:15 AM 2.3°F-16.5°C -0.9°F-18.3°C 86% Calm Calm -- 30.08 in1018.6 mb 0.00 in0.0 mm 0.00 in0.0 mm 0.00 in0.0 mm
09:30 AM 2.1°F-16.6°C -1.1°F-18.4°C 86% Calm Calm -- 30.08 in1018.6 mb 0.00 in0.0 mm 0.00 in0.0 mm 0.00 in0.0 mm
09:45 AM 1.7°F-16.8°C -1.5°F-18.6°C 86% Calm Calm -- 30.08 in1018.6 mb 0.00 in0.0 mm 0.00 in0.0 mm 0.00 in0.0 mm
10:00 AM 2.8°F-16.2°C -0.2°F-17.9°C 87% Calm Calm -- 30.08 in1018.6 mb 0.00 in0.0 mm 0.00 in0.0 mm 0.00 in0.0 mm
10:15 AM 3.2°F-16.0°C 0.2°F-17.7°C 87% Calm Calm -- 30.08 in1018.6 mb 0.00 in0.0 mm 0.00 in0.0 mm 0.00 in0.0 mm
10:30 AM 4.8°F-15.1°C 1.0°F-17.2°C 84% Calm Calm 1.0 mph1.6 kmh 30.08 in1018.6 mb 0.00 in0.0 mm 0.00 in0.0 mm 0.00 in0.0 mm
10:45 AM 5.3°F-14.8°C 1.5°F-16.9°C 84% 3.0 mph ESE4.8 kmh ESE 3.0 mph4.8 kmh 30.08 in1018.6 mb 0.00 in0.0 mm 0.00 in0.0 mm 0.00 in0.0 mm
11:00 AM 8.0°F-13.3°C 4.2°F-15.4°C 84% 4.0 mph WSW6.4 kmh WSW 9.0 mph14.5 kmh 30.07 in1018.3 mb 0.00 in0.0 mm 0.00 in0.0 mm 0.00 in0.0 mm
11:15 AM 8.8°F-12.9°C 4.4°F-15.3°C 82% Calm Calm 6.0 mph9.7 kmh 30.07 in1018.3 mb 0.00 in0.0 mm 0.00 in0.0 mm 0.00 in0.0 mm
11:30 AM 10.0°F-12.2°C 5.4°F-14.8°C 81% 5.0 mph SSW8.0 kmh SSW 7.0 mph11.3 kmh 30.06 in1017.9 mb 0.00 in0.0 mm 0.00 in0.0 mm 0.00 in0.0 mm
11:45 AM 10.5°F-11.9°C 5.8°F-14.6°C 81% 2.0 mph W3.2 kmh W 9.0 mph14.5 kmh 30.06 in1017.9 mb 0.00 in0.0 mm 0.00 in0.0 mm 0.00 in0.0 mm
12:00 PM 11.3°F-11.5°C 5.5°F-14.7°C 77% 4.0 mph W6.4 kmh W 9.0 mph14.5 kmh 30.06 in1017.9 mb 0.00 in0.0 mm 0.00 in0.0 mm 0.00 in0.0 mm
12:15 PM 11.1°F-11.6°C 5.0°F-15.0°C 76% 11.0 mph W17.7 kmh W 12.0 mph19.3 kmh 30.06 in1017.9 mb 0.00 in0.0 mm 0.00 in0.0 mm 0.00 in0.0 mm
12:30 PM 11.4°F-11.4°C 4.4°F-15.3°C 73% 10.0 mph WSW16.1 kmh WSW 13.0 mph20.9 kmh 30.06 in1017.9 mb 0.00 in0.0 mm 0.00 in0.0 mm 0.00 in0.0 mm
12:45 PM 11.9°F-11.2°C 5.2°F-14.9°C 74% 10.0 mph WSW16.1 kmh WSW 13.0 mph20.9 kmh 30.05 in1017.6 mb 0.00 in0.0 mm 0.00 in0.0 mm 0.00 in0.0 mm
01:00 PM 11.5°F-11.4°C 5.7°F-14.6°C 77% 11.0 mph WSW17.7 kmh WSW 14.0 mph22.5 kmh 30.05 in1017.6 mb 0.00 in0.0 mm 0.00 in0.0 mm 0.00 in0.0 mm
01:15 PM 11.2°F-11.6°C 5.7°F-14.6°C 78% 6.0 mph WSW9.7 kmh WSW 7.0 mph11.3 kmh 30.05 in1017.6 mb 0.00 in0.0 mm 0.00 in0.0 mm 0.00 in0.0 mm
01:30 PM 11.8°F-11.2°C 7.6°F-13.6°C 83% 10.0 mph WSW16.1 kmh WSW 11.0 mph17.7 kmh 30.05 in1017.6 mb 0.00 in0.0 mm 0.00 in0.0 mm 0.00 in0.0 mm
01:45 PM 12.1°F-11.1°C 6.9°F-13.9°C 79% 13.0 mph WSW20.9 kmh WSW 14.0 mph22.5 kmh 30.04 in1017.3 mb 0.00 in0.0 mm 0.00 in0.0 mm 0.00 in0.0 mm
02:00 PM 12.1°F-11.1°C 5.4°F-14.8°C 74% 11.0 mph WSW17.7 kmh WSW 24.0 mph38.6 kmh 30.04 in1017.3 mb 0.00 in0.0 mm 0.00 in0.0 mm 0.00 in0.0 mm
02:15 PM 12.5°F-10.8°C 4.6°F-15.2°C 70% 7.0 mph WSW11.3 kmh WSW 15.0 mph24.1 kmh 30.04 in1017.3 mb 0.00 in0.0 mm 0.00 in0.0 mm 0.00 in0.0 mm
02:30 PM 12.8°F-10.7°C 5.5°F-14.7°C 72% 8.0 mph W12.9 kmh W 17.0 mph27.4 kmh 30.03 in1016.9 mb 0.00 in0.0 mm 0.00 in0.0 mm 0.00 in0.0 mm
02:45 PM 13.3°F-10.4°C 5.4°F-14.8°C 70% 10.0 mph NW16.1 kmh NW 12.0 mph19.3 kmh 30.03 in1016.9 mb 0.00 in0.0 mm 0.00 in0.0 mm 0.00 in0.0 mm
03:00 PM 12.7°F-10.7°C 4.2°F-15.4°C 68% 11.0 mph WSW17.7 kmh WSW 16.0 mph25.7 kmh 30.02 in1016.6 mb 0.00 in0.0 mm 0.00 in0.0 mm 0.00 in0.0 mm
03:15 PM 13.0°F-10.6°C 4.4°F-15.3°C 68% 7.0 mph NNW11.3 kmh NNW 15.0 mph24.1 kmh 30.03 in1016.9 mb 0.00 in0.0 mm 0.00 in0.0 mm 0.00 in0.0 mm
03:30 PM 12.7°F-10.7°C 4.2°F-15.4°C 68% 11.0 mph WSW17.7 kmh WSW 20.0 mph32.2 kmh 30.03 in1016.9 mb 0.00 in0.0 mm 0.00 in0.0 mm 0.00 in0.0 mm
03:45 PM 12.2°F-11.0°C 3.7°F-15.7°C 68% 10.0 mph SW16.1 kmh SW 19.0 mph30.6 kmh 30.02 in1016.6 mb 0.00 in0.0 mm 0.00 in0.0 mm 0.00 in0.0 mm
04:00 PM 13.2°F-10.4°C 5.0°F-15.0°C 69% 17.0 mph WSW27.4 kmh WSW 20.0 mph32.2 kmh 30.02 in1016.6 mb 0.00 in0.0 mm 0.00 in0.0 mm 0.00 in0.0 mm
04:15 PM 12.2°F-11.0°C 4.3°F-15.4°C 70% 18.0 mph WSW29.0 kmh WSW 18.0 mph29.0 kmh 30.02 in1016.6 mb 0.00 in0.0 mm 0.00 in0.0 mm 0.00 in0.0 mm
04:30 PM 12.1°F-11.1°C 3.6°F-15.8°C 68% 11.0 mph WSW17.7 kmh WSW 16.0 mph25.7 kmh 30.03 in1016.9 mb 0.13 in3.3 mm 0.52 in13.2 mm 0.13 in3.3 mm
04:45 PM 13.2°F-10.4°C 4.3°F-15.4°C 67% 15.0 mph WSW24.1 kmh WSW 19.0 mph30.6 kmh 30.03 in1016.9 mb 0.13 in3.3 mm 0.00 in0.0 mm 0.13 in3.3 mm
05:00 PM 13.0°F-10.6°C 3.8°F-15.7°C 66% 10.0 mph WSW16.1 kmh WSW 18.0 mph29.0 kmh 30.03 in1016.9 mb 0.13 in3.3 mm 0.00 in0.0 mm 0.13 in3.3 mm
05:15 PM 11.0°F-11.7°C 2.8°F-16.2°C 69% 11.0 mph WSW17.7 kmh WSW 15.0 mph24.1 kmh 30.03 in1016.9 mb 0.13 in3.3 mm 0.00 in0.0 mm 0.13 in3.3 mm
05:30 PM 11.7°F-11.3°C 3.2°F-16.0°C 68% 7.0 mph WSW11.3 kmh WSW 19.0 mph30.6 kmh 30.03 in1016.9 mb 0.00 in0.0 mm 0.00 in0.0 mm 0.13 in3.3 mm
05:45 PM 11.6°F-11.3°C 2.5°F-16.4°C 66% 15.0 mph WSW24.1 kmh WSW 19.0 mph30.6 kmh 30.03 in1016.9 mb 0.00 in0.0 mm 0.00 in0.0 mm 0.13 in3.3 mm
06:00 PM 11.3°F-11.5°C 2.5°F-16.4°C 67% 5.0 mph WNW8.0 kmh WNW 16.0 mph25.7 kmh 30.03 in1016.9 mb 0.00 in0.0 mm 0.00 in0.0 mm 0.13 in3.3 mm
06:15 PM 10.8°F-11.8°C 2.6°F-16.3°C 69% 10.0 mph WSW16.1 kmh WSW 19.0 mph30.6 kmh 30.04 in1017.3 mb 0.00 in0.0 mm 0.00 in0.0 mm 0.13 in3.3 mm
06:30 PM 11.1°F-11.6°C 2.3°F-16.5°C 67% 14.0 mph WSW22.5 kmh WSW 14.0 mph22.5 kmh 30.04 in1017.3 mb 0.00 in0.0 mm 0.00 in0.0 mm 0.13 in3.3 mm
06:45 PM 10.4°F-12.0°C 2.0°F-16.7°C 68% 11.0 mph WSW17.7 kmh WSW 15.0 mph24.1 kmh 30.04 in1017.3 mb 0.00 in0.0 mm 0.00 in0.0 mm 0.13 in3.3 mm
07:00 PM 9.5°F-12.5°C 1.4°F-17.0°C 69% 13.0 mph WSW20.9 kmh WSW 19.0 mph30.6 kmh 30.04 in1017.3 mb 0.00 in0.0 mm 0.00 in0.0 mm 0.13 in3.3 mm
07:15 PM 8.1°F-13.3°C 0.1°F-17.7°C 69% 10.0 mph WSW16.1 kmh WSW 14.0 mph22.5 kmh 30.05 in1017.6 mb 0.00 in0.0 mm 0.00 in0.0 mm 0.13 in3.3 mm
07:30 PM 8.9°F-12.8°C 0.5°F-17.5°C 68% 10.0 mph WSW16.1 kmh WSW 15.0 mph24.1 kmh 30.05 in1017.6 mb 0.00 in0.0 mm 0.00 in0.0 mm 0.13 in3.3 mm
07:45 PM 9.0°F-12.8°C 0.3°F-17.6°C 67% 4.0 mph WNW6.4 kmh WNW 13.0 mph20.9 kmh 30.05 in1017.6 mb 0.00 in0.0 mm 0.00 in0.0 mm 0.13 in3.3 mm
08:00 PM 8.2°F-13.2°C -0.8°F-18.2°C 66% 9.0 mph WSW14.5 kmh WSW 14.0 mph22.5 kmh 30.06 in1017.9 mb 0.00 in0.0 mm 0.00 in0.0 mm 0.13 in3.3 mm
08:15 PM 6.1°F-14.4°C -2.5°F-19.2°C 67% 9.0 mph WSW14.5 kmh WSW 10.0 mph16.1 kmh 30.07 in1018.3 mb 0.00 in0.0 mm 0.00 in0.0 mm 0.13 in3.3 mm
08:30 PM 6.3°F-14.3°C -1.7°F-18.7°C 69% 12.0 mph W19.3 kmh W 16.0 mph25.7 kmh 30.07 in1018.3 mb 0.00 in0.0 mm 0.00 in0.0 mm 0.13 in3.3 mm
08:45 PM 5.3°F-14.8°C -2.6°F-19.2°C 69% 7.0 mph WSW11.3 kmh WSW 11.0 mph17.7 kmh 30.08 in1018.6 mb 0.00 in0.0 mm 0.00 in0.0 mm 0.13 in3.3 mm
09:00 PM 6.2°F-14.3°C -2.4°F-19.1°C 67% 6.0 mph W9.7 kmh W 12.0 mph19.3 kmh 30.08 in1018.6 mb 0.00 in0.0 mm 0.00 in0.0 mm 0.13 in3.3 mm
09:15 PM 6.0°F-14.4°C -2.3°F-19.1°C 68% 6.0 mph WSW9.7 kmh WSW 16.0 mph25.7 kmh 30.08 in1018.6 mb 0.00 in0.0 mm 0.00 in0.0 mm 0.13 in3.3 mm
09:30 PM 4.8°F-15.1°C -3.1°F-19.5°C 69% 7.0 mph WSW11.3 kmh WSW 9.0 mph14.5 kmh 30.09 in1019.0 mb 0.00 in0.0 mm 0.00 in0.0 mm 0.13 in3.3 mm
09:46 PM 4.6°F-15.2°C -3.3°F-19.6°C 69% 8.0 mph W12.9 kmh W 12.0 mph19.3 kmh 30.09 in1019.0 mb 0.00 in0.0 mm 0.00 in0.0 mm 0.13 in3.3 mm
10:00 PM 4.4°F-15.3°C -3.2°F-19.6°C 70% 7.0 mph WSW11.3 kmh WSW 10.0 mph16.1 kmh 30.09 in1019.0 mb 0.00 in0.0 mm 0.00 in0.0 mm 0.13 in3.3 mm
10:16 PM 2.3°F-16.5°C -4.6°F-20.3°C 72% 5.0 mph W8.0 kmh W 7.0 mph11.3 kmh 30.09 in1019.0 mb 0.00 in0.0 mm 0.00 in0.0 mm 0.13 in3.3 mm
10:30 PM 2.5°F-16.4°C -4.2°F-20.1°C 73% 4.0 mph WSW6.4 kmh WSW 6.0 mph9.7 kmh 30.09 in1019.0 mb 0.00 in0.0 mm 0.00 in0.0 mm 0.13 in3.3 mm
10:45 PM 1.3°F-17.1°C -5.0°F-20.6°C 74% 2.0 mph WSW3.2 kmh WSW 6.0 mph9.7 kmh 30.09 in1019.0 mb 0.00 in0.0 mm 0.00 in0.0 mm 0.13 in3.3 mm
11:00 PM 1.1°F-17.2°C -5.2°F-20.7°C 74% 3.0 mph W4.8 kmh W 4.0 mph6.4 kmh 30.09 in1019.0 mb 0.00 in0.0 mm 0.00 in0.0 mm 0.13 in3.3 mm
11:15 PM 0.1°F-17.7°C -6.3°F-21.3°C 74% 1.0 mph W1.6 kmh W 3.0 mph4.8 kmh 30.09 in1019.0 mb 0.00 in0.0 mm 0.00 in0.0 mm 0.13 in3.3 mm
11:30 PM -1.0°F-18.3°C -7.3°F-21.8°C 74% Calm Calm 2.0 mph3.2 kmh 30.09 in1019.0 mb 0.00 in0.0 mm 0.00 in0.0 mm 0.13 in3.3 mm
11:45 PM -1.6°F-18.7°C -7.6°F-22.0°C 75% 2.0 mph W3.2 kmh W 4.0 mph6.4 kmh 30.08 in1018.6 mb 0.00 in0.0 mm 0.00 in0.0 mm 0.13 in3.3 mm